createdAt,value
2022-12-16T00:01:20.607Z,15.63
2022-12-16T00:03:49.875Z,16.08
2022-12-16T00:06:22.463Z,15.18
2022-12-16T00:08:50.387Z,15.88
2022-12-16T00:11:20.589Z,15.98
2022-12-16T00:13:48.850Z,15.45
2022-12-16T00:16:18.678Z,15.38
2022-12-16T00:18:47.008Z,16.35
2022-12-16T00:21:15.482Z,15.02
2022-12-16T00:23:44.767Z,16.15
2022-12-16T00:26:14.139Z,15.27
2022-12-16T00:28:43.834Z,13.90
2022-12-16T00:31:12.373Z,13.60
2022-12-16T00:33:40.314Z,13.85
2022-12-16T00:36:09.483Z,13.32
2022-12-16T00:38:37.998Z,10.82
2022-12-16T00:41:08.105Z,9.45
2022-12-16T00:43:36.287Z,9.57
2022-12-16T00:46:04.738Z,9.27
2022-12-16T00:48:32.695Z,8.63
2022-12-16T00:51:00.617Z,7.82
2022-12-16T00:53:29.056Z,7.07
2022-12-16T00:56:03.192Z,5.93
2022-12-16T00:58:32.421Z,5.35
2022-12-16T01:01:00.261Z,4.95
2022-12-16T01:03:28.725Z,4.32
2022-12-16T01:05:56.683Z,4.20
2022-12-16T01:08:24.590Z,3.95
2022-12-16T01:10:53.219Z,3.95
2022-12-16T01:13:25.342Z,4.03
2022-12-16T01:15:54.609Z,3.95
2022-12-16T01:18:22.643Z,3.83
2022-12-16T01:20:50.696Z,3.42
2022-12-16T01:23:19.218Z,3.42
2022-12-16T01:25:49.772Z,4.07
2022-12-16T01:28:17.757Z,3.65
2022-12-16T01:30:45.600Z,3.35
2022-12-16T01:33:14.860Z,3.85
2022-12-16T01:35:55.650Z,3.72
2022-12-16T01:38:24.100Z,3.42
2022-12-16T01:40:52.689Z,3.70
2022-12-16T01:43:27.106Z,3.33
2022-12-16T01:46:00.237Z,4.05
2022-12-16T01:48:41.289Z,3.25
2022-12-16T01:51:14.421Z,4.05
2022-12-16T01:53:43.866Z,3.00
2022-12-16T01:56:16.635Z,3.50
2022-12-16T01:58:47.010Z,3.22
2022-12-16T02:01:17.772Z,2.95
2022-12-16T02:03:48.916Z,3.55
2022-12-16T02:06:17.191Z,3.25
2022-12-16T02:08:45.041Z,2.80
2022-12-16T02:11:34.103Z,2.78
2022-12-16T02:14:18.591Z,3.20
2022-12-16T02:16:53.153Z,2.78
2022-12-16T02:19:56.219Z,3.08
2022-12-16T02:22:34.493Z,3.30
2022-12-16T02:25:35.788Z,3.40
2022-12-16T02:28:09.740Z,3.10
2022-12-16T02:30:55.356Z,2.90
2022-12-16T02:33:49.275Z,3.33
2022-12-16T02:36:26.603Z,3.08
2022-12-16T02:39:00.171Z,3.17
2022-12-16T02:41:37.892Z,3.60
2022-12-16T02:44:07.817Z,3.78
2022-12-16T02:46:42.562Z,4.00
2022-12-16T02:49:55.087Z,3.45
2022-12-16T02:52:25.663Z,3.63
2022-12-16T02:54:57.006Z,4.20
2022-12-16T02:57:41.869Z,3.85
2022-12-16T03:00:13.933Z,4.00
2022-12-16T03:02:50.808Z,3.47
2022-12-16T03:05:23.665Z,4.18
2022-12-16T03:07:55.191Z,4.07
2022-12-16T03:10:28.978Z,5.07
2022-12-16T03:12:59.526Z,4.85
2022-12-16T03:15:32.171Z,5.55
2022-12-16T03:18:03.237Z,5.80
2022-12-16T03:20:36.403Z,6.60
2022-12-16T03:23:09.562Z,7.38
2022-12-16T03:25:42.482Z,8.05
2022-12-16T03:28:26.576Z,8.10
2022-12-16T03:31:02.248Z,10.15
2022-12-16T03:33:36.353Z,9.98
2022-12-16T03:36:11.444Z,11.95
2022-12-16T03:38:42.469Z,13.73
2022-12-16T03:41:10.773Z,14.88
2022-12-16T03:43:40.339Z,15.95
2022-12-16T03:46:10.652Z,17.00
2022-12-16T03:48:46.456Z,20.05
2022-12-16T03:51:14.689Z,20.42
2022-12-16T03:53:42.576Z,21.63
2022-12-16T03:56:11.520Z,20.20
2022-12-16T03:58:40.287Z,19.45
2022-12-16T04:01:09.484Z,20.05
2022-12-16T04:03:39.508Z,19.77
2022-12-16T04:06:07.890Z,19.23
2022-12-16T04:08:35.789Z,20.02
2022-12-16T04:11:21.296Z,18.98
2022-12-16T04:14:06.557Z,19.52
2022-12-16T04:16:51.829Z,20.90
2022-12-16T04:19:43.960Z,20.52
2022-12-16T04:22:33.076Z,22.25
2022-12-16T04:25:05.842Z,21.40
2022-12-16T04:27:34.386Z,21.88
2022-12-16T04:30:20.518Z,23.85
2022-12-16T04:33:10.633Z,23.00
2022-12-16T04:35:57.179Z,24.98
2022-12-16T04:38:42.955Z,24.00
2022-12-16T04:41:28.486Z,24.77
2022-12-16T04:44:14.343Z,23.67
2022-12-16T04:46:59.660Z,23.23
2022-12-16T04:49:44.936Z,23.00
2022-12-16T04:52:31.841Z,23.50
2022-12-16T04:55:17.225Z,22.63
2022-12-16T04:58:03.493Z,22.63
2022-12-16T05:00:49.009Z,22.65
2022-12-16T05:03:34.713Z,21.77
2022-12-16T05:06:20.734Z,22.63
2022-12-16T05:09:07.430Z,21.27
2022-12-16T05:11:53.011Z,21.85
2022-12-16T05:14:38.649Z,22.55
2022-12-16T05:17:24.371Z,23.30
2022-12-16T05:20:10.090Z,21.15
2022-12-16T05:22:55.496Z,22.60
2022-12-16T05:25:42.095Z,23.45
2022-12-16T05:28:27.474Z,23.42
2022-12-16T05:31:12.995Z,22.90
2022-12-16T05:33:58.270Z,23.88
2022-12-16T05:36:43.842Z,25.27
2022-12-16T05:42:25.183Z,24.83
2022-12-16T05:45:10.578Z,25.38
2022-12-16T05:47:55.851Z,24.88
2022-12-16T05:50:41.109Z,26.80
2022-12-16T05:53:27.633Z,26.23
2022-12-16T05:56:12.932Z,23.95
2022-12-16T05:58:59.524Z,25.20
2022-12-16T06:01:45.069Z,24.23
2022-12-16T06:04:30.850Z,25.50
2022-12-16T06:07:15.987Z,24.20
2022-12-16T06:10:01.296Z,25.15
2022-12-16T06:12:46.769Z,24.88
2022-12-16T06:15:33.914Z,24.45
2022-12-16T06:18:19.276Z,25.38
2022-12-16T06:21:09.931Z,24.55
2022-12-16T06:23:57.767Z,24.13
2022-12-16T06:26:43.269Z,24.08
2022-12-16T06:29:28.831Z,24.52
2022-12-16T06:32:15.736Z,24.13
2022-12-16T06:35:01.557Z,25.23
2022-12-16T06:37:46.889Z,25.63
2022-12-16T06:40:32.346Z,24.67
2022-12-16T06:43:17.763Z,24.33
2022-12-16T06:46:03.730Z,23.02
2022-12-16T06:48:50.591Z,22.35
2022-12-16T06:51:36.093Z,24.58
2022-12-16T06:54:21.528Z,24.77
2022-12-16T06:57:06.832Z,24.00
2022-12-16T06:59:52.118Z,23.75
2022-12-16T07:02:37.767Z,24.15
2022-12-16T07:05:25.162Z,24.63
2022-12-16T07:08:10.920Z,23.05
2022-12-16T07:11:03.439Z,24.33
2022-12-16T07:13:59.128Z,23.55
2022-12-16T07:16:44.723Z,24.42
2022-12-16T07:19:30.215Z,24.00
2022-12-16T07:22:16.912Z,24.00
2022-12-16T07:25:02.504Z,23.83
2022-12-16T07:27:47.686Z,24.05
2022-12-16T07:30:32.892Z,23.60
2022-12-16T07:33:18.365Z,22.73
2022-12-16T07:36:03.930Z,25.25
2022-12-16T07:38:50.580Z,23.60
2022-12-16T07:41:36.361Z,25.92
2022-12-16T07:44:23.121Z,24.23
2022-12-16T07:47:08.739Z,25.13
2022-12-16T07:49:55.387Z,23.83
2022-12-16T07:52:41.092Z,24.95
2022-12-16T07:55:28.105Z,25.52
2022-12-16T07:58:13.464Z,26.42
2022-12-16T08:00:58.782Z,26.58
2022-12-16T08:03:44.373Z,24.30
2022-12-16T08:06:30.003Z,24.15
2022-12-16T08:09:15.493Z,25.70
2022-12-16T08:12:03.063Z,25.00
2022-12-16T08:14:45.015Z,23.92
2022-12-16T08:17:30.682Z,24.08
2022-12-16T08:20:12.464Z,25.48
2022-12-16T08:23:04.379Z,24.42
2022-12-16T08:25:50.116Z,25.05
2022-12-16T08:28:37.766Z,25.70
2022-12-16T08:31:23.775Z,23.05
2022-12-16T08:34:09.056Z,24.08
2022-12-16T08:36:54.313Z,24.90
2022-12-16T08:39:39.929Z,23.77
2022-12-16T08:42:24.366Z,22.88
2022-12-16T08:45:10.950Z,24.88
2022-12-16T08:47:56.128Z,22.75
2022-12-16T08:50:41.927Z,22.38
2022-12-16T08:53:27.567Z,23.25
2022-12-16T08:56:12.877Z,24.60
2022-12-16T08:58:58.845Z,22.05
2022-12-16T09:01:45.433Z,22.90
2022-12-16T09:04:31.097Z,22.63
2022-12-16T09:07:16.875Z,21.92
2022-12-16T09:10:02.501Z,23.10
2022-12-16T09:12:48.008Z,23.27
2022-12-16T09:15:33.872Z,23.38
2022-12-16T09:18:20.368Z,23.70
2022-12-16T09:21:05.780Z,22.05
2022-12-16T09:23:51.009Z,23.98
2022-12-16T09:26:36.466Z,23.83
2022-12-16T09:29:22.176Z,23.88
2022-12-16T09:32:07.595Z,24.45
2022-12-16T09:34:55.216Z,24.55
2022-12-16T09:37:40.644Z,22.80
2022-12-16T09:40:29.846Z,22.27
2022-12-16T09:43:33.427Z,22.33
2022-12-16T09:46:27.836Z,25.48
2022-12-16T09:49:19.925Z,23.35
2022-12-16T09:52:08.094Z,24.77
2022-12-16T09:54:58.270Z,23.42
2022-12-16T09:57:48.087Z,23.85
2022-12-16T10:00:40.444Z,26.20
2022-12-16T10:03:38.352Z,23.70
2022-12-16T10:06:28.280Z,24.13
2022-12-16T10:09:22.687Z,25.77
2022-12-16T10:12:21.554Z,24.98
2022-12-16T10:15:14.056Z,26.00
2022-12-16T10:18:15.524Z,26.00
2022-12-16T10:21:07.814Z,25.10
2022-12-16T10:24:00.812Z,26.02
2022-12-16T10:27:10.005Z,25.30
2022-12-16T10:29:58.821Z,24.75
2022-12-16T10:32:49.557Z,25.27
2022-12-16T10:35:40.443Z,25.55
2022-12-16T10:38:37.075Z,26.40
2022-12-16T10:41:25.114Z,26.25
2022-12-16T10:44:14.047Z,27.50
2022-12-16T10:46:59.536Z,28.17
2022-12-16T10:49:47.452Z,28.15
2022-12-16T10:52:36.415Z,28.55
2022-12-16T10:55:36.086Z,29.63
2022-12-16T10:58:35.667Z,29.08
2022-12-16T11:01:40.713Z,28.95
2022-12-16T11:04:51.764Z,29.10
2022-12-16T11:07:48.576Z,29.48
2022-12-16T11:10:45.071Z,28.08
2022-12-16T11:13:36.809Z,28.85
2022-12-16T11:16:31.161Z,30.48
2022-12-16T11:19:17.195Z,29.13
2022-12-16T11:22:03.058Z,28.58
2022-12-16T11:24:49.422Z,28.45
2022-12-16T11:27:42.227Z,29.67
2022-12-16T11:30:40.203Z,30.50
2022-12-16T11:33:36.611Z,27.90
2022-12-16T11:36:29.896Z,27.95
2022-12-16T11:39:17.120Z,29.02
2022-12-16T11:42:05.911Z,29.40
2022-12-16T11:44:55.213Z,28.60
2022-12-16T11:47:51.480Z,27.15
2022-12-16T11:50:40.171Z,29.42
2022-12-16T11:53:43.048Z,27.75
2022-12-16T11:56:33.982Z,29.48
2022-12-16T11:59:31.122Z,29.35
2022-12-16T12:02:19.667Z,28.83
2022-12-16T12:05:19.048Z,28.90
2022-12-16T12:08:16.317Z,30.63
2022-12-16T12:11:18.182Z,30.45
2022-12-16T12:14:19.911Z,30.90
2022-12-16T12:17:15.749Z,28.05
2022-12-16T12:20:12.851Z,27.95
2022-12-16T12:22:58.760Z,27.92
2022-12-16T12:25:52.704Z,29.10
2022-12-16T12:28:50.941Z,29.25
2022-12-16T12:31:55.097Z,30.80
2022-12-16T12:34:48.924Z,30.52
2022-12-16T12:37:41.867Z,22.88
2022-12-16T12:40:49.988Z,28.95
2022-12-16T12:43:48.372Z,28.70
2022-12-16T12:46:40.699Z,31.58
2022-12-16T12:49:32.357Z,29.02
2022-12-16T12:52:26.852Z,29.75
2022-12-16T12:55:19.669Z,29.30
2022-12-16T12:58:07.539Z,31.02
2022-12-16T13:01:00.910Z,30.27
2022-12-16T13:03:53.381Z,28.92
2022-12-16T13:06:39.526Z,28.98
2022-12-16T13:09:48.417Z,29.40
2022-12-16T13:12:42.670Z,31.33
2022-12-16T13:15:32.537Z,29.80
2022-12-16T13:18:52.834Z,31.48
2022-12-16T13:22:01.810Z,31.02
2022-12-16T13:25:02.121Z,30.48
2022-12-16T13:27:49.054Z,31.67
2022-12-16T13:30:43.195Z,31.27
2022-12-16T13:33:44.139Z,30.30
2022-12-16T13:36:29.447Z,33.05
2022-12-16T13:39:18.375Z,32.08
2022-12-16T13:42:17.912Z,31.52
2022-12-16T13:45:17.552Z,30.50
2022-12-16T13:48:22.186Z,32.53
2022-12-16T13:51:18.123Z,32.30
2022-12-16T13:54:11.203Z,31.80
2022-12-16T13:57:01.900Z,30.10
2022-12-16T13:59:50.580Z,31.83
2022-12-16T14:02:44.544Z,32.25
2022-12-16T14:05:52.531Z,32.55
2022-12-16T14:08:41.118Z,31.10
2022-12-16T14:11:35.974Z,31.83
2022-12-16T14:14:28.726Z,33.33
2022-12-16T14:17:18.287Z,30.92
2022-12-16T14:20:15.212Z,31.95
2022-12-16T14:23:32.459Z,31.50
2022-12-16T14:26:22.060Z,32.42
2022-12-16T14:29:09.052Z,33.03
2022-12-16T14:31:57.685Z,32.83
2022-12-16T14:34:44.953Z,31.00
2022-12-16T14:37:34.827Z,31.48
2022-12-16T14:40:20.956Z,32.58
2022-12-16T14:43:12.985Z,33.25
2022-12-16T14:46:07.632Z,32.90
2022-12-16T14:48:54.656Z,32.80
2022-12-16T14:52:31.203Z,32.25
2022-12-16T14:55:19.096Z,31.83
2022-12-16T14:58:20.982Z,33.40
2022-12-16T15:01:15.337Z,33.30
2022-12-16T15:04:03.336Z,35.15
2022-12-16T15:06:57.598Z,32.97
2022-12-16T15:12:33.644Z,33.65
2022-12-16T15:15:22.615Z,35.17
2022-12-16T15:18:13.752Z,34.95
2022-12-16T15:21:07.313Z,33.55
2022-12-16T15:23:54.032Z,35.08
2022-12-16T15:26:41.633Z,33.08
2022-12-16T15:29:45.872Z,33.38
2022-12-16T15:35:46.876Z,32.92
2022-12-16T15:38:41.837Z,33.05
2022-12-16T15:41:39.611Z,33.75
2022-12-16T15:44:32.372Z,34.00
2022-12-16T15:47:18.381Z,34.15
2022-12-16T15:50:06.000Z,35.83
2022-12-16T15:52:58.443Z,34.65
2022-12-16T15:55:50.123Z,35.22
2022-12-16T15:58:43.222Z,32.50
2022-12-16T16:01:30.519Z,35.57
2022-12-16T16:04:16.873Z,35.33
2022-12-16T16:07:05.702Z,34.65
2022-12-16T16:09:54.759Z,35.67
2022-12-16T16:12:41.906Z,35.88
2022-12-16T16:15:30.478Z,33.80
2022-12-16T16:18:17.798Z,33.78
2022-12-16T16:21:04.064Z,37.63
2022-12-16T16:23:50.100Z,35.38
2022-12-16T16:26:39.520Z,34.25
2022-12-16T16:29:25.107Z,33.95
2022-12-16T16:32:11.059Z,35.10
2022-12-16T16:34:56.542Z,34.42
2022-12-16T16:37:42.202Z,35.97
2022-12-16T16:40:43.919Z,33.90
2022-12-16T16:43:31.265Z,32.55
2022-12-16T16:46:17.698Z,35.72
2022-12-16T16:49:03.306Z,33.80
2022-12-16T16:51:49.191Z,32.67
2022-12-16T16:54:34.629Z,34.88
2022-12-16T16:57:20.484Z,35.10
2022-12-16T17:00:07.727Z,34.33
2022-12-16T17:02:53.389Z,37.42
2022-12-16T17:05:39.000Z,33.60
2022-12-16T17:08:24.639Z,33.72
2022-12-16T17:11:10.098Z,31.92
2022-12-16T17:13:55.719Z,35.20
2022-12-16T17:16:42.539Z,32.75
2022-12-16T17:19:28.016Z,34.42
2022-12-16T17:22:27.972Z,36.58
2022-12-16T17:25:16.038Z,33.42
2022-12-16T17:28:09.598Z,33.80
2022-12-16T17:30:55.641Z,33.38
2022-12-16T17:33:42.312Z,34.45
2022-12-16T17:36:31.950Z,34.92
2022-12-16T17:39:17.995Z,34.00
2022-12-16T17:42:03.995Z,35.72
2022-12-16T17:44:49.172Z,32.47
2022-12-16T17:47:35.167Z,34.60
2022-12-16T17:50:23.953Z,33.80
2022-12-16T17:53:13.273Z,35.28
2022-12-16T17:55:59.457Z,36.25
2022-12-16T17:58:49.717Z,35.03
2022-12-16T18:01:35.498Z,35.22
2022-12-16T18:04:21.447Z,36.08
2022-12-16T18:07:08.144Z,33.67
2022-12-16T18:09:53.944Z,35.95
2022-12-16T18:12:40.004Z,35.60
2022-12-16T18:15:26.156Z,35.83
2022-12-16T18:18:11.497Z,37.50
2022-12-16T18:20:56.911Z,35.25
2022-12-16T18:23:43.921Z,36.03
2022-12-16T18:26:29.462Z,36.65
2022-12-16T18:29:15.312Z,36.97
2022-12-16T18:32:03.845Z,35.03
2022-12-16T18:34:49.472Z,36.00
2022-12-16T18:37:35.023Z,36.00
2022-12-16T18:40:30.598Z,34.38
2022-12-16T18:43:16.056Z,33.10
2022-12-16T18:46:01.513Z,33.88
2022-12-16T18:48:46.932Z,36.42
2022-12-16T18:51:32.494Z,34.97
2022-12-16T18:54:17.806Z,35.60
2022-12-16T18:57:04.382Z,35.40
2022-12-16T19:00:01.289Z,35.22
2022-12-16T19:02:46.946Z,33.13
2022-12-16T19:05:32.928Z,33.42
2022-12-16T19:08:18.347Z,31.73
2022-12-16T19:11:03.977Z,33.28
2022-12-16T19:13:50.485Z,35.28
2022-12-16T19:16:36.215Z,34.30
2022-12-16T19:19:22.036Z,32.17
2022-12-16T19:22:07.750Z,31.80
2022-12-16T19:24:56.268Z,31.85
2022-12-16T19:27:42.452Z,32.45
2022-12-16T19:30:30.035Z,33.25
2022-12-16T19:33:15.484Z,30.55
2022-12-16T19:36:00.724Z,32.35
2022-12-16T19:38:46.380Z,32.05
2022-12-16T19:41:33.912Z,30.35
2022-12-16T19:44:19.810Z,29.63
2022-12-16T19:47:06.994Z,28.40
2022-12-16T19:49:52.275Z,31.10
2022-12-16T19:52:40.369Z,30.60
2022-12-16T19:55:26.679Z,30.05
2022-12-16T19:58:12.190Z,28.02
2022-12-16T20:00:57.931Z,26.48
2022-12-16T20:03:45.316Z,26.52
2022-12-16T20:06:31.859Z,24.70
2022-12-16T20:09:17.706Z,27.40
2022-12-16T20:12:03.741Z,27.73
2022-12-16T20:14:49.088Z,29.17
2022-12-16T20:17:35.155Z,26.90
2022-12-16T20:20:23.469Z,29.45
2022-12-16T20:23:09.152Z,26.90
2022-12-16T20:29:00.415Z,24.90
2022-12-16T20:31:46.844Z,25.35
2022-12-16T20:34:33.279Z,24.98
2022-12-16T20:37:20.369Z,24.35
2022-12-16T20:40:05.651Z,25.85
2022-12-16T20:42:51.056Z,25.23
2022-12-16T20:45:40.267Z,24.25
2022-12-16T20:48:31.936Z,26.40
2022-12-16T20:54:29.713Z,27.13
2022-12-16T20:57:15.561Z,25.52
2022-12-16T21:00:01.268Z,25.58
2022-12-16T21:02:46.601Z,25.52
2022-12-16T21:05:32.527Z,22.90
2022-12-16T21:08:18.005Z,22.95
2022-12-16T21:11:04.874Z,22.38
2022-12-16T21:13:50.558Z,25.15
2022-12-16T21:16:35.939Z,24.67
2022-12-16T21:22:32.680Z,26.10
2022-12-16T21:25:24.409Z,26.65
2022-12-16T21:28:15.004Z,26.73
2022-12-16T21:31:00.573Z,24.85
2022-12-16T21:33:46.310Z,26.63
2022-12-16T21:36:32.167Z,27.08
2022-12-16T21:39:17.755Z,25.20
2022-12-16T21:42:03.296Z,26.63
2022-12-16T21:44:50.093Z,25.15
2022-12-16T21:47:39.187Z,23.45
2022-12-16T21:50:25.685Z,23.88
2022-12-16T21:53:11.608Z,21.88
2022-12-16T21:55:57.119Z,21.08
2022-12-16T21:58:42.777Z,20.42
2022-12-16T22:01:29.931Z,20.25
2022-12-16T22:04:15.501Z,21.25
2022-12-16T22:07:01.042Z,21.38
2022-12-16T22:09:46.720Z,21.90
2022-12-16T22:12:32.886Z,20.48
2022-12-16T22:15:19.258Z,21.88
2022-12-16T22:18:08.734Z,22.75
2022-12-16T22:20:57.575Z,21.10
2022-12-16T22:23:47.107Z,22.80
2022-12-16T22:26:33.936Z,21.50
2022-12-16T22:29:21.599Z,21.77
2022-12-16T22:32:08.649Z,21.98
2022-12-16T22:34:59.697Z,22.67
2022-12-16T22:37:47.070Z,22.05
2022-12-16T22:40:36.646Z,21.15
2022-12-16T22:43:23.283Z,22.55
2022-12-16T22:46:22.578Z,23.35
2022-12-16T22:49:08.176Z,24.38
2022-12-16T22:51:57.242Z,22.80
2022-12-16T22:54:42.926Z,24.42
2022-12-16T22:57:30.287Z,23.17
2022-12-16T23:00:16.534Z,23.60
2022-12-16T23:03:01.940Z,24.65
2022-12-16T23:05:47.505Z,22.50
2022-12-16T23:08:34.562Z,23.63
2022-12-16T23:11:20.358Z,23.52
2022-12-16T23:14:05.805Z,23.08
2022-12-16T23:16:51.327Z,24.00
2022-12-16T23:19:39.127Z,23.45
2022-12-16T23:22:24.722Z,24.88
2022-12-16T23:25:11.316Z,25.13
2022-12-16T23:27:57.261Z,23.35
2022-12-16T23:30:43.286Z,25.52
2022-12-16T23:33:29.571Z,23.05
2022-12-16T23:36:15.059Z,21.80
2022-12-16T23:39:15.342Z,24.17
2022-12-16T23:42:03.794Z,22.02
2022-12-16T23:44:56.262Z,22.65
2022-12-16T23:47:42.154Z,23.83
2022-12-16T23:50:28.304Z,23.27
2022-12-16T23:53:17.367Z,23.45
2022-12-16T23:56:02.673Z,25.98
2022-12-16T23:58:49.509Z,24.10
